Time;durP1;ratioP1;P1;durP2;ratioP2;P2;SDS_P1;SDS_P2;PMS_P1;PMS_P2;Temp;Humidity;BMP_temperature;BMP_pressure;BME280_temperature;BME280_humidity;BME280_pressure;Samples;Min_cycle;Max_cycle;Signal;HPM_P1;HPM_P2
2022/01/31 00:01:49;;;;;;;23.33;5.40;;;3.60;93.30;;;;;;5053998;28;20250;-80
2022/01/31 00:04:53;;;;;;;24.23;5.23;;;3.60;93.20;;;;;;5053546;28;20193;-80
2022/01/31 00:07:19;;;;;;;25.33;5.37;;;3.60;93.00;;;;;;5055021;28;20241;-80
2022/01/31 00:09:45;;;;;;;20.17;5.43;;;3.70;92.70;;;;;;5054295;28;20241;-80
2022/01/31 00:12:13;;;;;;;22.27;5.67;;;3.60;92.90;;;;;;5054223;28;20218;-80
2022/01/31 00:14:44;;;;;;;22.53;5.57;;;3.60;92.70;;;;;;5053352;28;20186;-80
2022/01/31 00:17:12;;;;;;;26.20;5.47;;;3.60;93.00;;;;;;5052534;28;20177;-80
2022/01/31 00:19:38;;;;;;;23.27;5.30;;;3.60;93.10;;;;;;5053104;28;20222;-80
2022/01/31 00:22:05;;;;;;;19.53;4.67;;;3.60;93.30;;;;;;5053236;28;20186;-80
2022/01/31 00:24:31;;;;;;;23.70;5.17;;;3.60;93.30;;;;;;5053685;28;20182;-80
2022/01/31 00:26:57;;;;;;;18.37;5.13;;;3.70;92.90;;;;;;5053440;28;20182;-80
2022/01/31 00:29:22;;;;;;;27.30;5.30;;;3.70;92.90;;;;;;5052902;28;20221;-80
2022/01/31 00:31:48;;;;;;;23.57;5.63;;;3.80;92.80;;;;;;5053318;28;20214;-80
2022/01/31 00:34:14;;;;;;;24.33;6.03;;;3.80;92.70;;;;;;5054278;28;20277;-80
2022/01/31 00:36:39;;;;;;;18.93;5.03;;;3.80;92.10;;;;;;5052874;28;20174;-80
2022/01/31 00:39:05;;;;;;;19.53;4.73;;;3.80;91.80;;;;;;5052799;28;20244;-80
2022/01/31 00:41:31;;;;;;;15.97;4.73;;;3.80;91.80;;;;;;5053084;28;20182;-80
2022/01/31 00:44:15;;;;;;;18.77;5.33;;;3.70;92.10;;;;;;5052800;28;20181;-80
2022/01/31 00:46:46;;;;;;;25.70;5.40;;;3.60;92.40;;;;;;5052789;28;20189;-80
2022/01/31 00:49:22;;;;;;;23.43;5.47;;;3.60;92.70;;;;;;5053301;28;20202;-80
2022/01/31 00:51:49;;;;;;;17.50;5.00;;;3.60;93.30;;;;;;5052597;28;20244;-80
2022/01/31 00:54:14;;;;;;;16.00;4.70;;;3.50;93.70;;;;;;5052968;28;20182;-80
2022/01/31 00:56:40;;;;;;;19.73;5.07;;;3.50;93.90;;;;;;5053309;28;20231;-79
2022/01/31 00:59:05;;;;;;;21.53;5.10;;;3.60;93.60;;;;;;5053347;28;20198;-80
2022/01/31 01:01:31;;;;;;;20.57;5.10;;;3.50;93.50;;;;;;5054448;28;20186;-80
2022/01/31 01:03:56;;;;;;;12.80;4.23;;;3.60;93.80;;;;;;5053499;28;20194;-80
2022/01/31 01:06:22;;;;;;;19.47;5.63;;;3.50;93.80;;;;;;5053389;28;20186;-79
2022/01/31 01:08:47;;;;;;;18.83;4.63;;;3.60;93.50;;;;;;5054320;28;20205;-79
2022/01/31 01:11:13;;;;;;;21.17;5.10;;;3.60;93.00;;;;;;5052892;28;20182;-79
2022/01/31 01:13:38;;;;;;;23.70;5.00;;;3.60;92.60;;;;;;5052906;28;20178;-79
2022/01/31 01:16:04;;;;;;;25.47;5.43;;;3.60;92.20;;;;;;5052870;28;20174;-79
2022/01/31 01:18:30;;;;;;;19.80;5.70;;;3.50;92.30;;;;;;5052815;28;20193;-80
2022/01/31 01:20:55;;;;;;;21.90;4.83;;;3.50;92.40;;;;;;5052789;28;20182;-80
2022/01/31 01:23:21;;;;;;;18.37;4.83;;;3.60;92.40;;;;;;5052724;28;20182;-80
2022/01/31 01:25:47;;;;;;;22.30;4.97;;;3.50;92.50;;;;;;5052814;28;20204;-80
2022/01/31 01:28:13;;;;;;;22.93;5.53;;;3.50;92.60;;;;;;5053880;28;20176;-80
2022/01/31 01:30:39;;;;;;;22.43;5.17;;;3.50;92.40;;;;;;5052768;28;20277;-79
2022/01/31 01:33:09;;;;;;;20.90;4.80;;;3.50;92.60;;;;;;5052716;28;20216;-79
2022/01/31 01:35:38;;;;;;;19.47;5.33;;;3.50;92.50;;;;;;5054351;28;20166;-79
2022/01/31 01:38:07;;;;;;;19.43;4.40;;;3.60;92.50;;;;;;5052527;28;20182;-79
2022/01/31 01:40:35;;;;;;;26.37;5.13;;;3.60;92.30;;;;;;5052740;28;20199;-80
2022/01/31 01:43:00;;;;;;;19.03;4.93;;;3.60;92.20;;;;;;5053628;28;20182;-79
2022/01/31 01:45:26;;;;;;;16.40;5.07;;;3.60;92.10;;;;;;5052773;28;20191;-79
2022/01/31 01:47:52;;;;;;;18.87;4.60;;;3.60;92.10;;;;;;5054178;28;20197;-79
2022/01/31 01:50:17;;;;;;;18.10;4.63;;;3.40;92.40;;;;;;5052385;28;20227;-80
2022/01/31 01:52:43;;;;;;;18.83;5.00;;;3.30;92.80;;;;;;5052505;28;20292;-80
2022/01/31 01:55:09;;;;;;;19.70;4.53;;;3.20;93.30;;;;;;5052438;28;20217;-80
2022/01/31 01:57:35;;;;;;;16.33;4.40;;;3.20;93.90;;;;;;5052341;28;20298;-79
2022/01/31 02:00:00;;;;;;;18.83;4.73;;;3.30;94.00;;;;;;5053866;28;20225;-80
2022/01/31 02:02:26;;;;;;;22.70;5.50;;;3.30;94.10;;;;;;5052310;28;20232;-80
2022/01/31 02:04:51;;;;;;;19.13;5.50;;;3.20;94.20;;;;;;5052457;28;20190;-80
2022/01/31 02:07:19;;;;;;;24.63;4.60;;;3.30;94.50;;;;;;5052718;28;20269;-79
2022/01/31 02:09:53;;;;;;;20.73;5.00;;;3.30;94.60;;;;;;5052745;28;20324;-80
2022/01/31 02:12:18;;;;;;;19.20;4.40;;;3.30;94.50;;;;;;5052464;28;20202;-80
2022/01/31 02:14:44;;;;;;;19.80;4.57;;;3.30;94.50;;;;;;5052016;28;20179;-80
2022/01/31 02:17:10;;;;;;;22.43;4.87;;;3.10;95.00;;;;;;5061308;28;20242;-80
2022/01/31 02:19:35;;;;;;;21.10;4.67;;;3.10;95.30;;;;;;5061380;28;20202;-80
2022/01/31 02:22:02;;;;;;;18.70;4.80;;;3.10;95.50;;;;;;5061072;28;20237;-80
2022/01/31 02:24:30;;;;;;;25.23;5.33;;;3.20;95.80;;;;;;5059390;28;20627;-80
2022/01/31 02:26:56;;;;;;;18.67;4.37;;;3.10;95.30;;;;;;5059866;28;20194;-79
2022/01/31 02:29:22;;;;;;;21.27;5.00;;;3.10;95.50;;;;;;5059661;28;20206;-80
2022/01/31 02:31:49;;;;;;;20.00;5.03;;;3.10;95.00;;;;;;5059280;28;20202;-80
2022/01/31 02:34:16;;;;;;;21.17;4.77;;;3.20;94.70;;;;;;5060060;28;20171;-80
2022/01/31 02:36:42;;;;;;;17.13;4.30;;;3.10;94.90;;;;;;5059582;28;20174;-80
2022/01/31 02:39:08;;;;;;;18.93;4.43;;;3.20;94.90;;;;;;5060104;28;20284;-80
2022/01/31 02:41:42;;;;;;;21.93;5.20;;;3.10;94.80;;;;;;5064501;28;20185;-80
2022/01/31 02:44:14;;;;;;;12.80;3.80;;;3.10;95.40;;;;;;5064662;28;20182;-80
2022/01/31 02:46:40;;;;;;;27.90;5.33;;;3.10;95.50;;;;;;5063666;28;20151;-80
2022/01/31 02:49:06;;;;;;;19.83;4.83;;;3.10;95.70;;;;;;5062145;28;20202;-80
2022/01/31 02:51:33;;;;;;;15.77;3.80;;;3.20;95.80;;;;;;5062508;28;20274;-80
2022/01/31 02:53:58;;;;;;;19.87;5.43;;;3.20;95.80;;;;;;5061332;28;20170;-79
2022/01/31 02:56:24;;;;;;;17.50;4.20;;;3.20;95.60;;;;;;5061885;28;20185;-79
2022/01/31 02:58:49;;;;;;;24.37;4.33;;;3.20;95.40;;;;;;5062415;28;20186;-80
2022/01/31 03:01:16;;;;;;;18.23;4.37;;;3.30;95.30;;;;;;5061335;28;20730;-80
2022/01/31 03:03:42;;;;;;;17.80;4.70;;;3.40;94.80;;;;;;5061677;28;20269;-80
2022/01/31 03:06:07;;;;;;;19.40;4.07;;;3.40;94.80;;;;;;5063041;28;20217;-80
2022/01/31 03:08:33;;;;;;;16.87;4.63;;;3.30;95.10;;;;;;5061730;28;20194;-80
2022/01/31 03:10:58;;;;;;;20.53;4.43;;;3.30;95.60;;;;;;5061208;28;20232;-80
2022/01/31 03:13:24;;;;;;;18.73;4.47;;;3.30;95.80;;;;;;5060455;28;20214;-80
2022/01/31 03:15:52;;;;;;;19.33;4.17;;;3.30;95.80;;;;;;5061045;28;20255;-80
2022/01/31 03:18:17;;;;;;;16.83;4.10;;;3.30;96.20;;;;;;5061560;28;20175;-79
2022/01/31 03:20:43;;;;;;;15.03;3.50;;;3.20;96.00;;;;;;5060771;28;20194;-79
2022/01/31 03:23:11;;;;;;;13.67;4.30;;;3.10;96.20;;;;;;5059744;28;20182;-79
2022/01/31 03:25:36;;;;;;;20.13;4.27;;;3.20;96.20;;;;;;5059988;28;20178;-79
2022/01/31 03:28:02;;;;;;;15.60;4.40;;;3.20;96.00;;;;;;5059558;28;20178;-79
2022/01/31 03:30:28;;;;;;;18.70;4.10;;;3.20;96.00;;;;;;5059943;28;20221;-79
2022/01/31 03:32:53;;;;;;;20.17;4.37;;;3.20;96.30;;;;;;5060015;28;20206;-79
2022/01/31 03:35:19;;;;;;;12.83;3.27;;;3.20;96.20;;;;;;5059962;28;20181;-79
2022/01/31 03:37:45;;;;;;;19.40;3.87;;;3.20;96.70;;;;;;5061085;28;20181;-79
2022/01/31 03:40:11;;;;;;;15.57;3.93;;;3.10;96.90;;;;;;5059257;28;20194;-79
2022/01/31 03:42:38;;;;;;;14.00;3.93;;;3.20;96.60;;;;;;5059774;28;20201;-79
2022/01/31 03:45:06;;;;;;;13.10;3.70;;;3.30;96.30;;;;;;5060351;28;20257;-79
2022/01/31 03:47:32;;;;;;;16.77;4.20;;;3.30;96.50;;;;;;5059083;28;20248;-79
2022/01/31 03:49:58;;;;;;;18.07;3.97;;;3.30;96.60;;;;;;5060187;28;20200;-79
2022/01/31 03:52:23;;;;;;;20.37;3.97;;;3.20;96.80;;;;;;5061292;28;20202;-79
2022/01/31 03:54:49;;;;;;;14.27;3.43;;;3.30;97.20;;;;;;5058880;28;20181;-79
2022/01/31 03:57:14;;;;;;;16.20;3.93;;;3.30;96.90;;;;;;5059162;28;20178;-80
2022/01/31 03:59:40;;;;;;;16.53;3.90;;;3.30;96.90;;;;;;5058553;28;20201;-80
2022/01/31 04:02:07;;;;;;;17.37;3.97;;;3.40;96.90;;;;;;5058200;28;20182;-80
2022/01/31 04:04:34;;;;;;;14.80;3.90;;;3.30;96.90;;;;;;5058462;28;20645;-80
2022/01/31 04:06:59;;;;;;;12.10;3.33;;;3.40;96.90;;;;;;5058543;28;20175;-80
2022/01/31 04:09:26;;;;;;;14.20;3.70;;;3.40;96.80;;;;;;5058275;28;20202;-80
2022/01/31 04:11:51;;;;;;;15.53;4.40;;;3.40;96.90;;;;;;5057803;28;20757;-80
2022/01/31 04:14:17;;;;;;;15.07;3.90;;;3.40;97.40;;;;;;5058008;28;20170;-80
2022/01/31 04:16:42;;;;;;;14.30;3.87;;;3.40;97.10;;;;;;5058157;28;20178;-80
2022/01/31 04:19:08;;;;;;;17.53;3.70;;;3.40;96.90;;;;;;5057679;28;20198;-80
2022/01/31 04:21:34;;;;;;;16.07;3.97;;;3.40;96.90;;;;;;5057982;28;20178;-80
2022/01/31 04:23:59;;;;;;;19.73;4.17;;;3.50;97.00;;;;;;5057268;28;20679;-80
2022/01/31 04:26:32;;;;;;;12.17;3.73;;;3.50;96.90;;;;;;5057842;28;20186;-80
2022/01/31 04:29:05;;;;;;;16.77;3.60;;;3.50;97.20;;;;;;5058739;28;20282;-80
2022/01/31 04:31:44;;;;;;;13.90;3.30;;;3.40;97.40;;;;;;5057340;28;20217;-80
2022/01/31 04:34:10;;;;;;;18.93;4.20;;;3.40;97.30;;;;;;5057633;28;20224;-80
2022/01/31 04:36:36;;;;;;;14.77;3.90;;;3.40;97.30;;;;;;5057269;28;20178;-80
2022/01/31 04:39:03;;;;;;;8.63;3.10;;;3.30;97.50;;;;;;5056323;28;20216;-80
2022/01/31 04:41:28;;;;;;;17.23;4.37;;;3.30;97.90;;;;;;5057484;28;20175;-80
2022/01/31 04:43:58;;;;;;;16.43;3.73;;;3.40;98.00;;;;;;5056737;28;20193;-80
2022/01/31 04:46:24;;;;;;;12.80;4.27;;;3.40;98.70;;;;;;5056363;28;20257;-80
2022/01/31 04:48:49;;;;;;;12.93;4.07;;;3.30;98.20;;;;;;5057736;28;20241;-80
2022/01/31 04:51:15;;;;;;;12.37;4.10;;;3.30;98.80;;;;;;5056142;28;20178;-80
2022/01/31 04:53:40;;;;;;;13.80;3.87;;;3.40;98.90;;;;;;5056062;28;20205;-80
2022/01/31 04:56:06;;;;;;;16.17;3.97;;;3.40;98.70;;;;;;5056419;28;20224;-80
2022/01/31 04:58:32;;;;;;;14.90;3.90;;;3.30;98.80;;;;;;5056266;28;20657;-80
2022/01/31 05:00:59;;;;;;;16.93;4.30;;;3.20;99.40;;;;;;5058431;28;20234;-80
2022/01/31 05:03:25;;;;;;;21.63;7.50;;;3.30;99.50;;;;;;5056117;28;20174;-80
2022/01/31 05:05:51;;;;;;;14.93;5.27;;;3.40;99.90;;;;;;5057667;28;20186;-80
2022/01/31 05:08:20;;;;;;;35.17;13.20;;;3.30;99.90;;;;;;5055742;28;20178;-81
2022/01/31 05:10:48;;;;;;;14.60;6.07;;;3.30;99.90;;;;;;5055644;28;20220;-81
2022/01/31 05:13:16;;;;;;;16.13;5.57;;;3.20;99.90;;;;;;5054281;28;20206;-81
2022/01/31 05:15:41;;;;;;;9.40;3.90;;;3.10;99.90;;;;;;5055179;28;20182;-81
2022/01/31 05:18:07;;;;;;;15.97;4.83;;;3.10;99.90;;;;;;5054331;28;20170;-80
2022/01/31 05:20:33;;;;;;;16.57;5.20;;;3.10;99.90;;;;;;5053775;28;20194;-82
2022/01/31 05:22:59;;;;;;;12.97;4.00;;;3.10;99.90;;;;;;5055304;28;20170;-81
2022/01/31 05:25:27;;;;;;;16.03;5.00;;;3.10;99.90;;;;;;5053938;28;20178;-81
2022/01/31 05:27:53;;;;;;;16.10;4.43;;;3.10;99.90;;;;;;5053900;28;20182;-81
2022/01/31 05:30:19;;;;;;;16.93;4.27;;;3.10;99.90;;;;;;5055293;28;20224;-81
2022/01/31 05:32:45;;;;;;;11.67;4.00;;;3.10;99.90;;;;;;5053498;28;20213;-81
2022/01/31 05:35:10;;;;;;;12.57;3.87;;;3.20;99.90;;;;;;5053600;28;20189;-81
2022/01/31 05:37:36;;;;;;;13.90;3.93;;;3.10;99.90;;;;;;5054179;28;20178;-84
2022/01/31 05:40:04;;;;;;;14.70;3.70;;;3.10;99.90;;;;;;5053786;28;20267;-81
2022/01/31 05:42:30;;;;;;;15.30;4.83;;;3.10;99.90;;;;;;5053376;28;20186;-79
2022/01/31 05:44:55;;;;;;;11.83;3.83;;;2.90;99.90;;;;;;5053782;28;20193;-80
2022/01/31 05:47:38;;;;;;;12.07;3.73;;;2.90;99.90;;;;;;5053838;28;20181;-79
2022/01/31 05:50:05;;;;;;;14.17;4.83;;;2.90;99.90;;;;;;5054944;28;20661;-79
2022/01/31 05:52:31;;;;;;;13.87;4.60;;;2.90;99.90;;;;;;5053140;28;20232;-79
2022/01/31 05:54:57;;;;;;;14.67;4.37;;;2.80;99.90;;;;;;5054804;28;20178;-79
2022/01/31 05:57:22;;;;;;;22.93;4.57;;;2.80;99.90;;;;;;5053363;28;20174;-79
2022/01/31 05:59:48;;;;;;;18.57;4.03;;;2.70;99.90;;;;;;5053670;28;20665;-79
2022/01/31 06:02:13;;;;;;;14.27;3.90;;;2.70;99.90;;;;;;5053461;28;20212;-79
2022/01/31 06:04:39;;;;;;;13.37;4.13;;;2.70;99.90;;;;;;5054115;28;20183;-79
2022/01/31 06:07:04;;;;;;;13.33;4.80;;;2.70;99.90;;;;;;5053324;28;20178;-79
2022/01/31 06:09:32;;;;;;;13.50;3.87;;;2.80;99.90;;;;;;5053394;28;20594;-79
2022/01/31 06:12:01;;;;;;;10.93;3.97;;;2.80;99.90;;;;;;5053773;28;20201;-79
2022/01/31 06:14:27;;;;;;;12.13;4.30;;;2.70;99.90;;;;;;5054018;28;20213;-79
2022/01/31 06:16:52;;;;;;;10.67;4.37;;;2.70;99.90;;;;;;5056918;28;20189;-79
2022/01/31 06:19:18;;;;;;;13.70;4.60;;;2.70;99.90;;;;;;5056664;28;20287;-80
2022/01/31 06:22:22;;;;;;;10.27;4.10;;;2.70;99.90;;;;;;5055534;28;20186;-81
2022/01/31 06:24:48;;;;;;;13.47;4.73;;;2.70;99.90;;;;;;5053644;28;20245;-81
2022/01/31 06:27:15;;;;;;;10.50;4.17;;;2.70;99.90;;;;;;5046875;28;20203;-80
2022/01/31 06:29:40;;;;;;;7.23;3.87;;;2.70;99.90;;;;;;5035852;28;20253;-81
2022/01/31 06:32:06;;;;;;;11.40;4.00;;;2.70;99.90;;;;;;5036036;28;20215;-81
2022/01/31 06:34:32;;;;;;;10.23;4.20;;;2.70;99.90;;;;;;5035668;28;20174;-81
2022/01/31 06:36:57;;;;;;;4.50;3.50;;;2.80;99.90;;;;;;5036210;28;20182;-81
2022/01/31 06:39:23;;;;;;;10.10;3.57;;;2.70;99.90;;;;;;5035870;28;20199;-81
2022/01/31 06:41:49;;;;;;;7.93;3.63;;;2.80;99.90;;;;;;5035278;28;20252;-81
2022/01/31 06:44:14;;;;;;;4.53;3.20;;;2.80;99.90;;;;;;5035677;28;20202;-80
2022/01/31 06:46:40;;;;;;;4.87;3.63;;;2.70;99.90;;;;;;5035658;28;20178;-81
2022/01/31 06:49:06;;;;;;;7.50;3.37;;;2.70;99.90;;;;;;5035800;28;20203;-81
2022/01/31 06:51:31;;;;;;;3.73;2.50;;;2.70;99.90;;;;;;5035583;28;20178;-86
2022/01/31 06:53:59;;;;;;;3.90;3.10;;;2.70;99.90;;;;;;5036882;28;20172;-81
2022/01/31 06:56:30;;;;;;;4.23;2.90;;;2.70;99.90;;;;;;5036641;28;20167;-81
2022/01/31 06:58:57;;;;;;;5.57;3.40;;;2.70;99.90;;;;;;5036067;28;20282;-82
2022/01/31 07:01:25;;;;;;;5.33;3.20;;;2.60;99.90;;;;;;5035312;28;20201;-81
2022/01/31 07:04:18;;;;;;;4.23;3.03;;;2.50;99.90;;;;;;5046903;28;20174;-79
2022/01/31 07:06:44;;;;;;;3.73;2.93;;;2.50;99.90;;;;;;5054793;28;20204;-79
2022/01/31 07:09:09;;;;;;;5.07;2.90;;;2.50;99.90;;;;;;5055123;28;20194;-80
2022/01/31 07:11:39;;;;;;;3.30;2.90;;;2.60;99.90;;;;;;5054867;28;20233;-79
2022/01/31 07:14:08;;;;;;;5.70;4.10;;;2.60;99.90;;;;;;5055323;28;20269;-79
2022/01/31 07:16:34;;;;;;;5.53;4.97;;;2.70;99.90;;;;;;5054847;28;20186;-80
2022/01/31 07:19:07;;;;;;;7.43;6.73;;;2.70;99.90;;;;;;5055005;28;20201;-79
2022/01/31 07:21:37;;;;;;;5.23;3.60;;;2.80;99.90;;;;;;5054826;28;20162;-78
2022/01/31 07:26:43;;;;;;;4.70;4.30;;;2.80;99.90;;;;;;5055866;28;20196;-79
2022/01/31 07:29:09;;;;;;;5.30;4.40;;;2.80;99.90;;;;;;5056062;28;20193;-79
2022/01/31 07:31:35;;;;;;;5.90;5.30;;;2.80;99.90;;;;;;5054165;28;20225;-79
2022/01/31 07:34:01;;;;;;;17.10;15.53;;;2.80;99.90;;;;;;5054350;28;20198;-79
2022/01/31 07:36:28;;;;;;;27.77;25.10;;;2.80;99.90;;;;;;5054392;28;20214;-79
2022/01/31 07:38:54;;;;;;;22.93;20.67;;;2.80;99.90;;;;;;5054455;28;20281;-79
2022/01/31 07:41:19;;;;;;;25.27;22.87;;;2.80;99.90;;;;;;5054117;28;20270;-80
2022/01/31 07:43:46;;;;;;;17.83;16.13;;;2.80;99.90;;;;;;5054469;28;20232;-79
2022/01/31 07:46:13;;;;;;;17.10;15.37;;;2.80;99.90;;;;;;5054310;28;20178;-79
2022/01/31 07:48:39;;;;;;;10.17;9.17;;;2.80;99.90;;;;;;5054467;28;20195;-79
2022/01/31 07:51:05;;;;;;;11.47;10.37;;;2.80;99.90;;;;;;5055278;28;20224;-80
2022/01/31 07:53:31;;;;;;;12.27;11.17;;;2.80;99.90;;;;;;5053925;28;20221;-79
2022/01/31 07:55:56;;;;;;;10.90;9.90;;;2.80;99.90;;;;;;5053933;28;20550;-79
2022/01/31 07:58:22;;;;;;;7.50;6.73;;;2.90;99.90;;;;;;5055708;28;20261;-79
2022/01/31 08:00:48;;;;;;;5.33;4.80;;;2.90;99.90;;;;;;5054044;28;20182;-79
2022/01/31 08:03:14;;;;;;;5.60;5.10;;;3.00;99.90;;;;;;5054914;28;20174;-79
2022/01/31 08:05:40;;;;;;;4.60;4.17;;;3.10;99.90;;;;;;5053621;28;20656;-80
2022/01/31 08:08:06;;;;;;;5.77;4.07;;;3.10;99.90;;;;;;5053671;28;20194;-79
2022/01/31 08:10:34;;;;;;;5.10;4.60;;;3.10;99.90;;;;;;5053447;28;20241;-79
2022/01/31 08:13:01;;;;;;;3.60;3.30;;;3.10;99.90;;;;;;5053440;28;20213;-79
2022/01/31 08:15:28;;;;;;;2.80;2.60;;;3.10;99.90;;;;;;5053614;28;20251;-79
2022/01/31 08:17:54;;;;;;;3.90;2.67;;;3.10;99.90;;;;;;5053398;28;20232;-79
2022/01/31 08:20:20;;;;;;;4.27;3.87;;;3.20;99.90;;;;;;5053779;28;20194;-80
2022/01/31 08:22:45;;;;;;;4.80;4.30;;;3.20;99.90;;;;;;5053693;28;20214;-79
2022/01/31 08:25:14;;;;;;;3.07;2.60;;;3.40;99.90;;;;;;5053267;28;20178;-79
2022/01/31 08:27:47;;;;;;;2.73;2.53;;;3.60;99.90;;;;;;5053232;28;20581;-79
2022/01/31 08:30:18;;;;;;;3.00;2.70;;;3.70;99.90;;;;;;5053191;28;20252;-79
2022/01/31 08:32:45;;;;;;;4.13;3.13;;;3.60;99.90;;;;;;5053207;28;20300;-80
2022/01/31 08:37:58;;;;;;;2.73;2.13;;;3.60;99.90;;;;;;5054183;28;20216;-79
2022/01/31 08:40:24;;;;;;;3.40;2.20;;;3.70;99.90;;;;;;5054256;28;20186;-80
2022/01/31 08:42:49;;;;;;;2.53;2.10;;;3.70;99.90;;;;;;5054800;28;20216;-79
2022/01/31 08:45:15;;;;;;;6.30;2.50;;;3.80;99.90;;;;;;5054184;28;20235;-79
2022/01/31 08:47:42;;;;;;;3.93;3.13;;;3.90;99.90;;;;;;5052925;28;20209;-79
2022/01/31 08:50:10;;;;;;;4.50;3.43;;;3.80;99.90;;;;;;5054045;28;20194;-79
2022/01/31 08:52:36;;;;;;;4.80;4.30;;;3.90;99.90;;;;;;5053632;28;20374;-79
2022/01/31 08:55:02;;;;;;;3.77;3.43;;;4.00;99.90;;;;;;5053989;28;20641;-80
2022/01/31 08:57:28;;;;;;;4.87;3.60;;;4.00;99.90;;;;;;5053218;28;20593;-80
2022/01/31 08:59:54;;;;;;;5.63;3.00;;;4.00;99.90;;;;;;5053970;28;20198;-79
2022/01/31 09:02:29;;;;;;;4.63;2.40;;;4.00;99.90;;;;;;5052784;28;20240;-79
2022/01/31 09:04:54;;;;;;;5.77;5.27;;;4.10;99.90;;;;;;5053723;28;20220;-79
2022/01/31 09:07:22;;;;;;;5.53;3.70;;;4.20;99.90;;;;;;5036379;28;20179;-80
2022/01/31 09:09:52;;;;;;;4.43;3.70;;;4.20;99.90;;;;;;5033353;28;20618;-79
2022/01/31 09:12:18;;;;;;;4.73;4.33;;;4.20;99.90;;;;;;5033281;28;20210;-79
2022/01/31 09:14:45;;;;;;;3.43;3.13;;;4.20;99.90;;;;;;5034120;28;20205;-79
2022/01/31 09:17:10;;;;;;;3.50;2.90;;;4.10;99.90;;;;;;5032631;28;20206;-79
2022/01/31 09:19:36;;;;;;;4.83;3.93;;;4.10;99.90;;;;;;5032593;28;20207;-79
2022/01/31 09:22:02;;;;;;;4.30;3.90;;;4.10;99.90;;;;;;5051302;28;20189;-79
2022/01/31 09:24:29;;;;;;;4.93;3.73;;;4.10;99.90;;;;;;5052449;28;20221;-79
2022/01/31 09:26:55;;;;;;;3.67;3.37;;;4.00;99.90;;;;;;5053624;28;20235;-79
2022/01/31 09:29:21;;;;;;;3.10;2.30;;;4.00;99.90;;;;;;5053575;28;20724;-79
2022/01/31 09:31:46;;;;;;;3.43;2.60;;;4.00;99.90;;;;;;5052354;28;20359;-79
2022/01/31 09:34:32;;;;;;;6.53;5.37;;;4.10;99.90;;;;;;5052196;28;20182;-79
2022/01/31 09:36:59;;;;;;;4.90;4.30;;;4.10;99.90;;;;;;5052740;28;20166;-79
2022/01/31 09:39:24;;;;;;;3.33;3.00;;;4.10;99.90;;;;;;5052694;28;20279;-80
2022/01/31 09:41:54;;;;;;;3.67;2.53;;;4.20;99.90;;;;;;5052945;28;20217;-80
2022/01/31 09:44:38;;;;;;;4.27;3.13;;;4.30;99.90;;;;;;5052237;28;20192;-79
2022/01/31 09:49:30;;;;;;;3.57;2.87;;;4.50;99.90;;;;;;5057040;28;20194;-80
2022/01/31 09:51:56;;;;;;;5.17;3.40;;;4.60;99.90;;;;;;5056218;28;20217;-80
2022/01/31 09:54:25;;;;;;;3.73;3.37;;;4.60;99.90;;;;;;5056172;28;20189;-79
2022/01/31 09:56:53;;;;;;;4.27;3.33;;;4.70;99.90;;;;;;5056678;28;20185;-80
2022/01/31 09:59:19;;;;;;;6.30;3.90;;;4.70;99.90;;;;;;5056679;28;20198;-79
2022/01/31 10:01:57;;;;;;;3.80;3.50;;;4.60;99.90;;;;;;5056472;28;20188;-80
2022/01/31 10:04:35;;;;;;;4.50;3.97;;;4.50;99.90;;;;;;5056907;28;20235;-79
2022/01/31 10:07:03;;;;;;;5.93;4.57;;;4.50;99.90;;;;;;5055965;28;20188;-79
2022/01/31 10:09:32;;;;;;;6.20;4.63;;;4.60;99.90;;;;;;5055863;28;20204;-80
2022/01/31 10:12:07;;;;;;;7.20;4.70;;;4.50;99.90;;;;;;5055857;28;20252;-79
2022/01/31 10:17:27;;;;;;;6.43;4.13;;;4.50;99.90;;;;;;5057429;28;20161;-80
2022/01/31 10:19:55;;;;;;;5.47;3.80;;;4.50;99.90;;;;;;5055505;28;20292;-80
2022/01/31 10:22:26;;;;;;;5.27;4.07;;;4.50;99.90;;;;;;5055614;28;20186;-79
2022/01/31 10:24:55;;;;;;;3.37;2.80;;;4.60;99.90;;;;;;5056501;28;20189;-79
2022/01/31 10:27:24;;;;;;;4.00;3.33;;;4.50;99.90;;;;;;5056003;28;20186;-79
2022/01/31 10:29:52;;;;;;;3.73;2.83;;;4.50;99.90;;;;;;5055461;28;20205;-80
2022/01/31 10:32:30;;;;;;;5.93;3.20;;;4.60;99.90;;;;;;5055570;28;20271;-79
2022/01/31 10:34:58;;;;;;;4.17;2.90;;;4.60;99.90;;;;;;5055488;28;20174;-79
2022/01/31 10:37:26;;;;;;;4.43;2.73;;;4.60;99.90;;;;;;5055365;28;20206;-79
2022/01/31 10:53:49;;;;;;;5.17;2.73;;;4.60;99.90;;;;;;5056529;28;20221;-79
2022/01/31 10:56:15;;;;;;;8.53;2.97;;;4.60;99.90;;;;;;5054766;28;20159;-80
2022/01/31 10:58:59;;;;;;;3.57;2.60;;;4.60;99.90;;;;;;5035075;28;20231;-80
2022/01/31 11:01:25;;;;;;;5.40;2.80;;;4.60;99.90;;;;;;5034731;28;20159;-80
2022/01/31 11:03:52;;;;;;;4.63;2.60;;;4.60;99.90;;;;;;5035202;28;20182;-80
2022/01/31 11:06:20;;;;;;;3.97;2.30;;;4.60;99.90;;;;;;5035139;28;20175;-80
2022/01/31 11:08:46;;;;;;;4.60;2.00;;;4.60;99.90;;;;;;5036239;28;20190;-80
2022/01/31 11:11:12;;;;;;;2.73;2.40;;;4.70;99.90;;;;;;5035810;28;20167;-79
2022/01/31 11:13:41;;;;;;;5.50;5.00;;;4.70;99.90;;;;;;5036222;28;20297;-79
2022/01/31 11:16:08;;;;;;;10.37;9.17;;;4.60;99.90;;;;;;5035337;28;20171;-79
2022/01/31 11:18:35;;;;;;;5.53;4.87;;;4.70;99.90;;;;;;5035873;28;20201;-80
2022/01/31 11:21:07;;;;;;;2.20;2.00;;;4.70;99.90;;;;;;5036291;28;20174;-79
2022/01/31 11:23:39;;;;;;;2.20;1.90;;;4.70;99.90;;;;;;5035816;28;20221;-79
2022/01/31 11:26:07;;;;;;;3.23;2.17;;;4.70;99.90;;;;;;5034715;28;20179;-79
2022/01/31 11:28:36;;;;;;;2.03;1.83;;;4.70;99.90;;;;;;5035263;28;20285;-79
2022/01/31 11:31:02;;;;;;;2.83;1.90;;;4.70;99.90;;;;;;5036074;28;20267;-78
2022/01/31 11:33:29;;;;;;;3.10;1.60;;;4.70;99.90;;;;;;5035141;28;20237;-80
2022/01/31 11:35:55;;;;;;;2.23;1.90;;;4.60;99.90;;;;;;5035104;28;20207;-80
2022/01/31 11:38:21;;;;;;;3.50;2.90;;;4.60;99.90;;;;;;5035252;28;20181;-80
2022/01/31 11:40:47;;;;;;;2.97;2.30;;;4.70;99.90;;;;;;5035904;28;20253;-80
2022/01/31 11:43:15;;;;;;;2.30;2.10;;;4.60;99.90;;;;;;5035772;28;20186;-79
2022/01/31 11:45:41;;;;;;;3.13;2.57;;;4.50;99.90;;;;;;5034930;28;20190;-79
2022/01/31 11:48:18;;;;;;;1.77;1.43;;;4.60;99.90;;;;;;5035331;28;20221;-79
2022/01/31 11:50:46;;;;;;;1.03;1.03;;;4.60;99.90;;;;;;5034596;28;20171;-80
2022/01/31 11:53:12;;;;;;;2.13;1.40;;;4.60;99.90;;;;;;5034955;28;20211;-80
2022/01/31 11:55:38;;;;;;;5.10;3.90;;;4.50;99.90;;;;;;5038565;28;20270;-80
2022/01/31 11:58:10;;;;;;;2.37;2.10;;;4.50;99.90;;;;;;5044961;28;20174;-80
2022/01/31 12:00:42;;;;;;;1.67;1.57;;;4.50;99.90;;;;;;5042380;28;20182;-80
2022/01/31 12:03:09;;;;;;;2.77;2.40;;;4.50;99.90;;;;;;5042069;28;20245;-80
2022/01/31 12:05:36;;;;;;;3.80;3.37;;;4.50;99.90;;;;;;5052005;28;20182;-80
2022/01/31 12:08:03;;;;;;;4.17;2.80;;;4.50;99.90;;;;;;5062417;28;20182;-80
2022/01/31 12:10:37;;;;;;;3.57;2.80;;;4.60;99.90;;;;;;5062268;28;20206;-80
2022/01/31 12:13:26;;;;;;;2.20;1.93;;;4.60;99.90;;;;;;5059709;28;20213;-80
2022/01/31 12:23:54;;;;;;;1.40;1.30;;;4.50;99.90;;;;;;5058146;28;20641;-79
2022/01/31 12:26:39;;;;;;;19.17;14.17;;;4.50;99.90;;;;;;5057228;28;20182;-79
2022/01/31 12:29:10;;;;;;;61.83;31.17;;;4.60;99.90;;;;;;5057137;28;20209;-80
2022/01/31 12:31:54;;;;;;;198.53;82.07;;;4.60;99.90;;;;;;5059281;28;20198;-80
2022/01/31 12:34:23;;;;;;;67.10;28.80;;;4.60;99.90;;;;;;5060304;28;20173;-80
2022/01/31 12:37:16;;;;;;;92.80;35.60;;;4.60;99.90;;;;;;5060500;28;20181;-80
2022/01/31 12:39:44;;;;;;;116.93;47.93;;;4.70;99.90;;;;;;5059265;28;20198;-80
2022/01/31 12:42:44;;;;;;;177.70;63.30;;;4.60;99.90;;;;;;5060000;28;20189;-80
2022/01/31 12:45:12;;;;;;;102.93;40.63;;;4.60;99.90;;;;;;5059830;28;20261;-80
2022/01/31 12:47:38;;;;;;;328.20;101.50;;;4.70;99.90;;;;;;5060806;28;20178;-79
2022/01/31 12:50:23;;;;;;;287.47;90.47;;;4.80;99.90;;;;;;5058825;28;20206;-79
2022/01/31 12:52:49;;;;;;;622.83;199.13;;;4.80;99.90;;;;;;5057815;28;20609;-79
2022/01/31 12:55:15;;;;;;;958.63;339.67;;;4.60;99.90;;;;;;5045765;28;20186;-80
2022/01/31 12:57:53;;;;;;;332.77;130.23;;;4.60;99.90;;;;;;5038605;28;20183;-80
2022/01/31 13:00:41;;;;;;;33.87;16.73;;;4.60;99.90;;;;;;5037064;28;20293;-80
2022/01/31 13:03:08;;;;;;;16.37;9.07;;;4.50;99.90;;;;;;5039229;28;20183;-80
2022/01/31 13:05:40;;;;;;;3.23;2.47;;;4.50;99.90;;;;;;5040431;28;20178;-79
2022/01/31 13:08:23;;;;;;;2.27;2.03;;;4.40;99.90;;;;;;5037071;28;20206;-79
2022/01/31 13:10:51;;;;;;;35.83;32.00;;;4.30;99.90;;;;;;5039259;28;20252;-80
2022/01/31 13:13:33;;;;;;;11.53;10.43;;;4.30;99.90;;;;;;5039121;28;20261;-80
2022/01/31 13:16:07;;;;;;;6.90;6.23;;;4.30;99.90;;;;;;5039668;28;20175;-80
2022/01/31 13:18:33;;;;;;;6.17;5.57;;;4.30;99.90;;;;;;5039234;28;20257;-80
2022/01/31 13:21:03;;;;;;;47.17;38.60;;;4.40;99.90;;;;;;5041157;28;20229;-80
2022/01/31 13:23:33;;;;;;;18.87;14.43;;;4.40;99.90;;;;;;5038607;28;20178;-80
2022/01/31 13:26:00;;;;;;;25.77;20.80;;;4.50;99.90;;;;;;5037449;28;20186;-80
2022/01/31 13:28:26;;;;;;;13.97;11.83;;;4.60;99.90;;;;;;5039708;28;20214;-80